sensor_id;sensor_type;location;lat;lon;timestamp;pressure;altitude;pressure_sealevel;temperature;humidity
65716;BME280;63484;52.054;8.518;2022-12-11T00:03:06;100233.31;;;0.93;81.04
65716;BME280;63484;52.054;8.518;2022-12-11T00:08:07;100225.50;;;0.94;79.81
65716;BME280;63484;52.054;8.518;2022-12-11T00:13:07;100229.03;;;0.92;80.50
65716;BME280;63484;52.054;8.518;2022-12-11T00:18:11;100222.97;;;0.93;80.19
65716;BME280;63484;52.054;8.518;2022-12-11T00:23:12;100223.81;;;0.93;80.44
65716;BME280;63484;52.054;8.518;2022-12-11T00:28:14;100214.31;;;0.94;80.21
65716;BME280;63484;52.054;8.518;2022-12-11T00:33:15;100217.72;;;0.94;80.71
65716;BME280;63484;52.054;8.518;2022-12-11T00:38:18;100215.16;;;0.94;80.06
65716;BME280;63484;52.054;8.518;2022-12-11T00:43:19;100223.63;;;0.99;80.83
65716;BME280;63484;52.054;8.518;2022-12-11T00:48:19;100210.94;;;0.92;81.69
65716;BME280;63484;52.054;8.518;2022-12-11T00:53:20;100222.97;;;0.93;82.22
65716;BME280;63484;52.054;8.518;2022-12-11T00:58:21;100229.84;;;0.94;82.38
65716;BME280;63484;52.054;8.518;2022-12-11T01:03:21;100232.25;;;1.00;82.77
65716;BME280;63484;52.054;8.518;2022-12-11T01:08:22;100231.00;;;0.84;83.43
65716;BME280;63484;52.054;8.518;2022-12-11T01:13:22;100235.16;;;0.88;85.17
65716;BME280;63484;52.054;8.518;2022-12-11T01:18:23;100229.91;;;0.91;83.81
65716;BME280;63484;52.054;8.518;2022-12-11T01:23:23;100235.03;;;0.94;84.36
65716;BME280;63484;52.054;8.518;2022-12-11T01:28:24;100236.88;;;0.89;84.24
65716;BME280;63484;52.054;8.518;2022-12-11T01:33:25;100226.53;;;0.89;84.60
65716;BME280;63484;52.054;8.518;2022-12-11T01:38:25;100229.00;;;0.93;84.21
65716;BME280;63484;52.054;8.518;2022-12-11T01:43:26;100237.66;;;0.92;84.35
65716;BME280;63484;52.054;8.518;2022-12-11T01:48:28;100236.75;;;0.93;85.05
65716;BME280;63484;52.054;8.518;2022-12-11T01:53:34;100227.13;;;0.98;84.92
65716;BME280;63484;52.054;8.518;2022-12-11T01:58:41;100235.06;;;0.91;85.21
65716;BME280;63484;52.054;8.518;2022-12-11T02:03:43;100233.31;;;0.93;85.10
65716;BME280;63484;52.054;8.518;2022-12-11T02:08:43;100223.75;;;0.95;84.58
65716;BME280;63484;52.054;8.518;2022-12-11T02:13:51;100217.78;;;0.93;85.41
65716;BME280;63484;52.054;8.518;2022-12-11T02:19:07;100215.34;;;0.88;86.15
65716;BME280;63484;52.054;8.518;2022-12-11T02:24:43;100212.69;;;0.90;85.55
65716;BME280;63484;52.054;8.518;2022-12-11T02:29:53;100205.88;;;0.87;85.76
65716;BME280;63484;52.054;8.518;2022-12-11T02:35:16;100200.66;;;0.89;87.00
65716;BME280;63484;52.054;8.518;2022-12-11T02:40:21;100197.19;;;0.90;86.67
65716;BME280;63484;52.054;8.518;2022-12-11T02:45:23;100197.91;;;0.95;86.79
65716;BME280;63484;52.054;8.518;2022-12-11T02:50:26;100198.81;;;0.94;86.59
65716;BME280;63484;52.054;8.518;2022-12-11T02:55:28;100194.34;;;0.97;86.94
65716;BME280;63484;52.054;8.518;2022-12-11T03:00:31;100198.03;;;0.90;87.40
65716;BME280;63484;52.054;8.518;2022-12-11T03:05:31;100191.34;;;0.83;87.45
65716;BME280;63484;52.054;8.518;2022-12-11T03:10:32;100198.13;;;0.87;88.16
65716;BME280;63484;52.054;8.518;2022-12-11T03:15:51;100191.91;;;0.93;88.08
65716;BME280;63484;52.054;8.518;2022-12-11T03:21:04;100197.09;;;0.93;87.62
65716;BME280;63484;52.054;8.518;2022-12-11T03:26:10;100191.00;;;0.95;87.42
65716;BME280;63484;52.054;8.518;2022-12-11T03:31:41;100201.34;;;0.95;88.31
65716;BME280;63484;52.054;8.518;2022-12-11T03:36:43;100212.41;;;1.00;87.44
65716;BME280;63484;52.054;8.518;2022-12-11T03:41:45;100208.19;;;0.96;89.10
65716;BME280;63484;52.054;8.518;2022-12-11T03:46:48;100209.22;;;0.91;88.63
65716;BME280;63484;52.054;8.518;2022-12-11T03:51:52;100204.31;;;0.82;88.80
65716;BME280;63484;52.054;8.518;2022-12-11T03:56:56;100199.06;;;0.85;89.66
65716;BME280;63484;52.054;8.518;2022-12-11T04:01:57;100193.03;;;0.84;89.54
65716;BME280;63484;52.054;8.518;2022-12-11T04:06:57;100199.31;;;0.76;89.28
65716;BME280;63484;52.054;8.518;2022-12-11T04:11:58;100204.41;;;0.79;88.87
65716;BME280;63484;52.054;8.518;2022-12-11T04:16:59;100201.00;;;0.77;89.51
65716;BME280;63484;52.054;8.518;2022-12-11T04:22:00;100212.03;;;0.83;88.95
65716;BME280;63484;52.054;8.518;2022-12-11T04:27:33;100204.31;;;0.82;89.80
65716;BME280;63484;52.054;8.518;2022-12-11T04:32:50;100200.13;;;0.78;89.77
65716;BME280;63484;52.054;8.518;2022-12-11T04:37:51;100205.22;;;0.81;89.94
65716;BME280;63484;52.054;8.518;2022-12-11T04:42:51;100201.63;;;0.85;89.45
65716;BME280;63484;52.054;8.518;2022-12-11T04:47:52;100196.50;;;0.83;89.71
65716;BME280;63484;52.054;8.518;2022-12-11T04:52:56;100188.78;;;0.82;88.85
65716;BME280;63484;52.054;8.518;2022-12-11T04:57:56;100182.50;;;0.90;88.64
65716;BME280;63484;52.054;8.518;2022-12-11T05:02:56;100186.94;;;0.87;89.07
65716;BME280;63484;52.054;8.518;2022-12-11T05:07:57;100193.88;;;0.85;89.17
65716;BME280;63484;52.054;8.518;2022-12-11T05:12:57;100188.59;;;0.88;88.86
65716;BME280;63484;52.054;8.518;2022-12-11T05:17:57;100184.34;;;0.87;88.50
65716;BME280;63484;52.054;8.518;2022-12-11T05:22:58;100185.16;;;0.89;88.24
65716;BME280;63484;52.054;8.518;2022-12-11T05:27:58;100182.47;;;0.92;87.33
65716;BME280;63484;52.054;8.518;2022-12-11T05:32:59;100181.75;;;0.87;87.36
65716;BME280;63484;52.054;8.518;2022-12-11T05:37:59;100183.47;;;0.86;86.50
65716;BME280;63484;52.054;8.518;2022-12-11T05:43:00;100180.31;;;0.77;85.18
65716;BME280;63484;52.054;8.518;2022-12-11T05:48:01;100182.66;;;0.86;85.13
65716;BME280;63484;52.054;8.518;2022-12-11T05:53:01;100186.34;;;0.77;85.24
65716;BME280;63484;52.054;8.518;2022-12-11T05:58:01;100189.84;;;0.75;85.77
65716;BME280;63484;52.054;8.518;2022-12-11T06:03:02;100187.38;;;0.72;85.65
65716;BME280;63484;52.054;8.518;2022-12-11T06:08:02;100190.66;;;0.77;85.19
65716;BME280;63484;52.054;8.518;2022-12-11T06:13:03;100181.19;;;0.77;85.32
65716;BME280;63484;52.054;8.518;2022-12-11T06:18:03;100181.00;;;0.83;84.81
65716;BME280;63484;52.054;8.518;2022-12-11T06:23:04;100180.81;;;0.89;84.44
65716;BME280;63484;52.054;8.518;2022-12-11T06:28:04;100175.69;;;0.88;85.62
65716;BME280;63484;52.054;8.518;2022-12-11T06:33:05;100178.34;;;0.85;85.74
65716;BME280;63484;52.054;8.518;2022-12-11T06:38:06;100175.06;;;0.80;86.36
65716;BME280;63484;52.054;8.518;2022-12-11T06:43:06;100180.09;;;0.84;85.28
65716;BME280;63484;52.054;8.518;2022-12-11T06:48:06;100177.78;;;0.75;85.42
65716;BME280;63484;52.054;8.518;2022-12-11T06:53:08;100175.81;;;0.83;85.03
65716;BME280;63484;52.054;8.518;2022-12-11T06:58:09;100173.47;;;0.76;84.91
65716;BME280;63484;52.054;8.518;2022-12-11T07:03:10;100176.88;;;0.76;83.99
65716;BME280;63484;52.054;8.518;2022-12-11T07:08:12;100183.91;;;0.73;84.17
65716;BME280;63484;52.054;8.518;2022-12-11T07:13:13;100177.88;;;0.72;83.63
65716;BME280;63484;52.054;8.518;2022-12-11T07:18:13;100176.47;;;0.61;84.20
65716;BME280;63484;52.054;8.518;2022-12-11T07:23:13;100181.22;;;0.76;84.08
65716;BME280;63484;52.054;8.518;2022-12-11T07:28:14;100185.78;;;0.68;84.12
65716;BME280;63484;52.054;8.518;2022-12-11T07:33:14;100184.16;;;0.64;84.70
65716;BME280;63484;52.054;8.518;2022-12-11T07:38:15;100185.06;;;0.63;85.38
65716;BME280;63484;52.054;8.518;2022-12-11T07:43:16;100184.81;;;0.70;85.25
65716;BME280;63484;52.054;8.518;2022-12-11T07:48:16;100190.09;;;0.67;85.23
65716;BME280;63484;52.054;8.518;2022-12-11T07:53:16;100195.03;;;0.75;85.04
65716;BME280;63484;52.054;8.518;2022-12-11T07:58:17;100193.34;;;0.74;84.17
65716;BME280;63484;52.054;8.518;2022-12-11T08:03:17;100201.16;;;0.72;85.02
65716;BME280;63484;52.054;8.518;2022-12-11T08:08:18;100190.84;;;0.71;85.70
65716;BME280;63484;52.054;8.518;2022-12-11T08:13:18;100195.22;;;0.69;86.16
65716;BME280;63484;52.054;8.518;2022-12-11T08:18:18;100196.78;;;0.74;84.71
65716;BME280;63484;52.054;8.518;2022-12-11T08:23:19;100188.34;;;0.68;85.38
65716;BME280;63484;52.054;8.518;2022-12-11T08:28:19;100195.22;;;0.69;86.13
65716;BME280;63484;52.054;8.518;2022-12-11T08:33:20;100190.94;;;0.68;85.97
65716;BME280;63484;52.054;8.518;2022-12-11T08:38:21;100193.38;;;0.72;86.81
65716;BME280;63484;52.054;8.518;2022-12-11T08:43:21;100189.84;;;0.75;85.30
65716;BME280;63484;52.054;8.518;2022-12-11T08:48:21;100196.78;;;0.74;85.90
65716;BME280;63484;52.054;8.518;2022-12-11T08:53:22;100201.25;;;0.69;86.16
65716;BME280;63484;52.054;8.518;2022-12-11T08:58:22;100209.75;;;0.73;85.47
65716;BME280;63484;52.054;8.518;2022-12-11T09:03:23;100201.28;;;0.68;84.76
65716;BME280;63484;52.054;8.518;2022-12-11T09:08:23;100205.78;;;0.61;85.74
65716;BME280;63484;52.054;8.518;2022-12-11T09:13:24;100204.94;;;0.61;85.66
65716;BME280;63484;52.054;8.518;2022-12-11T09:18:25;100202.06;;;0.70;85.46
65716;BME280;63484;52.054;8.518;2022-12-11T09:23:25;100199.06;;;0.85;85.69
65716;BME280;63484;52.054;8.518;2022-12-11T09:28:26;100208.16;;;0.98;84.21
65716;BME280;63484;52.054;8.518;2022-12-11T09:33:26;100200.16;;;0.76;84.39
65716;BME280;63484;52.054;8.518;2022-12-11T09:38:27;100197.56;;;0.78;84.86
65716;BME280;63484;52.054;8.518;2022-12-11T09:49:01;100194.25;;;0.73;85.00
65716;BME280;63484;52.054;8.518;2022-12-11T09:54:03;100180.56;;;0.69;85.63
65716;BME280;63484;52.054;8.518;2022-12-11T09:59:23;100184.09;;;0.65;86.20
65716;BME280;63484;52.054;8.518;2022-12-11T10:05:30;100181.38;;;0.71;86.43
65716;BME280;63484;52.054;8.518;2022-12-11T10:10:36;100185.00;;;0.64;86.60
65716;BME280;63484;52.054;8.518;2022-12-11T10:15:56;100184.91;;;0.67;85.72
65716;BME280;63484;52.054;8.518;2022-12-11T10:21:00;100183.44;;;0.59;86.30
65716;BME280;63484;52.054;8.518;2022-12-11T10:26:06;100168.72;;;0.61;86.38
65716;BME280;63484;52.054;8.518;2022-12-11T10:36:39;100157.56;;;0.59;86.35
65716;BME280;63484;52.054;8.518;2022-12-11T10:41:45;100160.06;;;0.62;86.14
65716;BME280;63484;52.054;8.518;2022-12-11T10:46:48;100166.13;;;0.90;86.32
65716;BME280;63484;52.054;8.518;2022-12-11T10:52:00;100162.97;;;0.80;86.39
65716;BME280;63484;52.054;8.518;2022-12-11T10:57:03;100165.56;;;0.80;85.69
65716;BME280;63484;52.054;8.518;2022-12-11T11:02:06;100167.16;;;0.84;84.90
65716;BME280;63484;52.054;8.518;2022-12-11T11:12:25;100168.44;;;0.70;85.01
65716;BME280;63484;52.054;8.518;2022-12-11T11:17:26;100171.59;;;0.81;84.53
65716;BME280;63484;52.054;8.518;2022-12-11T11:22:26;100166.44;;;0.81;84.15
65716;BME280;63484;52.054;8.518;2022-12-11T11:27:36;100150.34;;;0.71;83.99
65716;BME280;63484;52.054;8.518;2022-12-11T11:32:40;100150.09;;;0.79;83.18
65716;BME280;63484;52.054;8.518;2022-12-11T11:37:45;100147.31;;;0.85;83.01
65716;BME280;63484;52.054;8.518;2022-12-11T11:43:00;100145.97;;;1.01;83.14
65716;BME280;63484;52.054;8.518;2022-12-11T11:53:29;100135.66;;;0.99;80.75
65716;BME280;63484;52.054;8.518;2022-12-11T11:58:51;100141.88;;;0.94;80.68
65716;BME280;63484;52.054;8.518;2022-12-11T12:03:55;100133.50;;;0.86;81.14
65716;BME280;63484;52.054;8.518;2022-12-11T12:09:42;100143.16;;;0.81;81.44
65716;BME280;63484;52.054;8.518;2022-12-11T12:14:33;100130.22;;;0.81;81.07
65716;BME280;63484;52.054;8.518;2022-12-11T12:19:57;100136.25;;;0.80;81.68
65716;BME280;63484;52.054;8.518;2022-12-11T12:25:17;100129.22;;;0.85;82.46
65716;BME280;63484;52.054;8.518;2022-12-11T12:30:21;100128.41;;;0.83;81.57
65716;BME280;63484;52.054;8.518;2022-12-11T12:35:33;100137.06;;;0.82;83.01
65716;BME280;63484;52.054;8.518;2022-12-11T12:46:23;100134.28;;;0.88;82.36
65716;BME280;63484;52.054;8.518;2022-12-11T12:51:28;100117.91;;;0.89;82.33
65716;BME280;63484;52.054;8.518;2022-12-11T12:56:30;100117.41;;;0.76;82.96
65716;BME280;63484;52.054;8.518;2022-12-11T13:01:31;100122.72;;;0.72;83.03
65716;BME280;63484;52.054;8.518;2022-12-11T13:06:35;100110.31;;;0.54;82.98
65716;BME280;63484;52.054;8.518;2022-12-11T13:11:36;100108.63;;;0.53;83.57
65716;BME280;63484;52.054;8.518;2022-12-11T13:16:48;100106.06;;;0.53;83.71
65716;BME280;63484;52.054;8.518;2022-12-11T13:32:29;100101.44;;;0.62;84.11
65716;BME280;63484;52.054;8.518;2022-12-11T13:37:41;100100.28;;;0.72;84.04
65716;BME280;63484;52.054;8.518;2022-12-11T13:42:54;100100.59;;;0.62;83.85
65716;BME280;63484;52.054;8.518;2022-12-11T13:47:56;100109.78;;;0.72;83.51
65716;BME280;63484;52.054;8.518;2022-12-11T13:52:59;100110.16;;;0.60;84.30
65716;BME280;63484;52.054;8.518;2022-12-11T13:58:00;100111.16;;;0.54;83.93
65716;BME280;63484;52.054;8.518;2022-12-11T14:03:04;100122.13;;;0.62;83.95
65716;BME280;63484;52.054;8.518;2022-12-11T14:08:07;100118.78;;;0.59;84.70
65716;BME280;63484;52.054;8.518;2022-12-11T14:13:20;100111.16;;;0.54;84.19
65716;BME280;63484;52.054;8.518;2022-12-11T14:18:27;100123.28;;;0.52;83.89
65716;BME280;63484;52.054;8.518;2022-12-11T14:23:33;100120.75;;;0.51;84.28
65716;BME280;63484;52.054;8.518;2022-12-11T14:28:37;100127.59;;;0.53;84.05
65716;BME280;63484;52.054;8.518;2022-12-11T14:33:44;100131.19;;;0.48;84.40
65716;BME280;63484;52.054;8.518;2022-12-11T14:38:51;100127.63;;;0.52;84.84
65716;BME280;63484;52.054;8.518;2022-12-11T14:43:58;100126.88;;;0.48;84.31
65716;BME280;63484;52.054;8.518;2022-12-11T14:49:10;100129.59;;;0.44;84.72
65716;BME280;63484;52.054;8.518;2022-12-11T14:54:23;100133.72;;;0.49;85.84
65716;BME280;63484;52.054;8.518;2022-12-11T14:59:25;100137.78;;;0.58;84.52
65716;BME280;63484;52.054;8.518;2022-12-11T15:04:30;100129.13;;;0.59;84.33
65716;BME280;63484;52.054;8.518;2022-12-11T15:14:35;100136.34;;;0.48;84.73
65716;BME280;63484;52.054;8.518;2022-12-11T15:19:47;100135.44;;;0.49;85.41
65716;BME280;63484;52.054;8.518;2022-12-11T15:24:50;100151.69;;;0.54;85.09
65716;BME280;63484;52.054;8.518;2022-12-11T15:29:51;100148.22;;;0.55;84.76
65716;BME280;63484;52.054;8.518;2022-12-11T15:34:54;100138.59;;;0.60;84.53
65716;BME280;63484;52.054;8.518;2022-12-11T15:39:58;100145.41;;;0.62;84.71
65716;BME280;63484;52.054;8.518;2022-12-11T15:44:59;100147.94;;;0.64;84.42
65716;BME280;63484;52.054;8.518;2022-12-11T15:50:06;100143.09;;;0.53;85.23
65716;BME280;63484;52.054;8.518;2022-12-11T15:55:07;100146.25;;;0.63;85.02
65716;BME280;63484;52.054;8.518;2022-12-11T16:00:12;100156.31;;;0.72;83.92
65716;BME280;63484;52.054;8.518;2022-12-11T16:05:13;100153.03;;;0.67;83.98
65716;BME280;63484;52.054;8.518;2022-12-11T16:10:16;100156.38;;;0.70;83.44
65716;BME280;63484;52.054;8.518;2022-12-11T16:15:17;100154.84;;;0.65;83.71
65716;BME280;63484;52.054;8.518;2022-12-11T16:20:18;100156.50;;;0.66;82.93
65716;BME280;63484;52.054;8.518;2022-12-11T16:25:18;100159.91;;;0.68;83.23
65716;BME280;63484;52.054;8.518;2022-12-11T16:30:18;100155.56;;;0.68;83.25
65716;BME280;63484;52.054;8.518;2022-12-11T16:35:20;100162.50;;;0.68;84.07
65716;BME280;63484;52.054;8.518;2022-12-11T16:40:21;100153.78;;;0.70;85.23
65716;BME280;63484;52.054;8.518;2022-12-11T16:45:23;100154.28;;;0.54;85.38
65716;BME280;63484;52.054;8.518;2022-12-11T16:50:24;100158.66;;;0.52;85.33
65716;BME280;63484;52.054;8.518;2022-12-11T16:55:25;100152.44;;;0.57;85.50
65716;BME280;63484;52.054;8.518;2022-12-11T17:00:25;100161.97;;;0.57;85.09
65716;BME280;63484;52.054;8.518;2022-12-11T17:05:26;100149.72;;;0.62;84.39
65716;BME280;63484;52.054;8.518;2022-12-11T17:10:26;100146.25;;;0.63;84.58
65716;BME280;63484;52.054;8.518;2022-12-11T17:15:26;100139.22;;;0.68;85.45
65716;BME280;63484;52.054;8.518;2022-12-11T17:20:27;100146.19;;;0.66;85.45
65716;BME280;63484;52.054;8.518;2022-12-11T17:25:27;100146.88;;;0.71;85.07
65716;BME280;63484;52.054;8.518;2022-12-11T17:30:28;100149.56;;;0.68;85.57
65716;BME280;63484;52.054;8.518;2022-12-11T17:35:30;100143.59;;;0.66;84.91
65716;BME280;63484;52.054;8.518;2022-12-11T17:40:31;100147.94;;;0.64;85.15
65716;BME280;63484;52.054;8.518;2022-12-11T17:45:31;100155.56;;;0.68;84.74
65716;BME280;63484;52.054;8.518;2022-12-11T17:50:31;100146.84;;;0.72;84.19
65716;BME280;63484;52.054;8.518;2022-12-11T17:55:32;100151.09;;;0.73;85.01
65716;BME280;63484;52.054;8.518;2022-12-11T18:00:32;100139.22;;;0.68;85.34
65716;BME280;63484;52.054;8.518;2022-12-11T18:05:33;100140.72;;;0.75;84.48
65716;BME280;63484;52.054;8.518;2022-12-11T18:10:35;100143.25;;;0.76;84.13
65716;BME280;63484;52.054;8.518;2022-12-11T18:15:36;100137.41;;;0.70;84.64
65716;BME280;63484;52.054;8.518;2022-12-11T18:20:37;100145.13;;;0.73;85.21
65716;BME280;63484;52.054;8.518;2022-12-11T18:25:39;100154.47;;;0.77;84.55
65716;BME280;63484;52.054;8.518;2022-12-11T18:30:39;100151.00;;;0.78;84.39
65716;BME280;63484;52.054;8.518;2022-12-11T18:35:40;100148.31;;;0.81;85.00
65716;BME280;63484;52.054;8.518;2022-12-11T18:40:40;100143.91;;;0.83;84.05
65716;BME280;63484;52.054;8.518;2022-12-11T18:45:41;100133.63;;;0.81;82.95
65716;BME280;63484;52.054;8.518;2022-12-11T18:50:44;100143.84;;;0.86;82.21
65716;BME280;63484;52.054;8.518;2022-12-11T18:55:47;100134.38;;;0.85;82.10
65716;BME280;63484;52.054;8.518;2022-12-11T19:00:47;100131.00;;;0.83;82.39
65716;BME280;63484;52.054;8.518;2022-12-11T19:05:48;100136.13;;;0.84;82.24
65716;BME280;63484;52.054;8.518;2022-12-11T19:15:51;100135.50;;;0.76;83.01
65716;BME280;63484;52.054;8.518;2022-12-11T19:20:52;100141.44;;;0.80;83.03
65716;BME280;63484;52.054;8.518;2022-12-11T19:25:53;100143.84;;;0.86;83.62
65716;BME280;63484;52.054;8.518;2022-12-11T19:30:53;100141.66;;;0.72;85.11
65716;BME280;63484;52.054;8.518;2022-12-11T19:36:06;100146.25;;;0.63;85.77
65716;BME280;63484;52.054;8.518;2022-12-11T19:41:13;100153.31;;;0.58;86.48
65716;BME280;63484;52.054;8.518;2022-12-11T19:46:15;100151.47;;;0.61;86.62
65716;BME280;63484;52.054;8.518;2022-12-11T19:51:21;100149.06;;;0.55;86.67
65716;BME280;63484;52.054;8.518;2022-12-11T19:56:22;100144.78;;;0.54;86.74
65716;BME280;63484;52.054;8.518;2022-12-11T20:01:28;100143.81;;;0.58;86.63
65716;BME280;63484;52.054;8.518;2022-12-11T20:06:31;100153.25;;;0.59;87.19
65716;BME280;63484;52.054;8.518;2022-12-11T20:11:32;100150.81;;;0.55;87.88
65716;BME280;63484;52.054;8.518;2022-12-11T20:16:33;100153.44;;;0.53;87.85
65716;BME280;63484;52.054;8.518;2022-12-11T20:21:33;100145.59;;;0.56;88.53
65716;BME280;63484;52.054;8.518;2022-12-11T20:26:34;100150.84;;;0.53;88.52
65716;BME280;63484;52.054;8.518;2022-12-11T20:31:36;100156.78;;;0.57;89.04
65716;BME280;63484;52.054;8.518;2022-12-11T20:36:36;100153.41;;;0.55;88.51
65716;BME280;63484;52.054;8.518;2022-12-11T20:41:36;100165.50;;;0.53;87.97
65716;BME280;63484;52.054;8.518;2022-12-11T20:46:37;100168.97;;;0.53;87.97
65716;BME280;63484;52.054;8.518;2022-12-11T20:51:37;100163.75;;;0.55;88.49
65716;BME280;63484;52.054;8.518;2022-12-11T20:56:38;100162.25;;;0.46;88.28
65716;BME280;63484;52.054;8.518;2022-12-11T21:01:39;100160.63;;;0.44;88.93
65716;BME280;63484;52.054;8.518;2022-12-11T21:06:40;100161.56;;;0.40;88.54
65716;BME280;63484;52.054;8.518;2022-12-11T21:11:41;100156.41;;;0.40;89.35
65716;BME280;63484;52.054;8.518;2022-12-11T21:16:42;100158.94;;;0.41;88.62
65716;BME280;63484;52.054;8.518;2022-12-11T21:21:42;100167.56;;;0.42;88.39
65716;BME280;63484;52.054;8.518;2022-12-11T21:26:45;100157.03;;;0.48;88.34
65716;BME280;63484;52.054;8.518;2022-12-11T21:31:45;100158.72;;;0.49;88.56
65716;BME280;63484;52.054;8.518;2022-12-11T21:36:46;100162.06;;;0.52;88.26
65716;BME280;63484;52.054;8.518;2022-12-11T21:41:46;100160.44;;;0.50;88.61
65716;BME280;63484;52.054;8.518;2022-12-11T21:46:46;100159.84;;;0.40;88.97
65716;BME280;63484;52.054;8.518;2022-12-11T21:51:47;100155.69;;;0.35;89.27
65716;BME280;63484;52.054;8.518;2022-12-11T21:56:47;100155.88;;;0.29;89.94
65716;BME280;63484;52.054;8.518;2022-12-11T22:01:47;100157.44;;;0.33;90.58
65716;BME280;63484;52.054;8.518;2022-12-11T22:06:48;100166.94;;;0.34;90.32
65716;BME280;63484;52.054;8.518;2022-12-11T22:11:48;100166.09;;;0.32;90.24
65716;BME280;63484;52.054;8.518;2022-12-11T22:16:49;100162.63;;;0.33;90.27
65716;BME280;63484;52.054;8.518;2022-12-11T22:21:49;100164.47;;;0.28;90.30
65716;BME280;63484;52.054;8.518;2022-12-11T22:26:49;100167.75;;;0.34;89.98
65716;BME280;63484;52.054;8.518;2022-12-11T22:31:50;100170.34;;;0.34;89.98
65716;BME280;63484;52.054;8.518;2022-12-11T22:36:51;100167.00;;;0.31;90.07
65716;BME280;63484;52.054;8.518;2022-12-11T22:41:52;100164.16;;;0.40;89.35
65716;BME280;63484;52.054;8.518;2022-12-11T22:46:52;100160.00;;;0.34;89.48
65716;BME280;63484;52.054;8.518;2022-12-11T22:51:53;100162.66;;;0.31;89.61
65716;BME280;63484;52.054;8.518;2022-12-11T22:56:53;100165.00;;;0.40;89.46
65716;BME280;63484;52.054;8.518;2022-12-11T23:01:53;100159.75;;;0.43;89.42
65716;BME280;63484;52.054;8.518;2022-12-11T23:06:54;100167.66;;;0.39;89.48
65716;BME280;63484;52.054;8.518;2022-12-11T23:11:54;100165.84;;;0.41;89.40
65716;BME280;63484;52.054;8.518;2022-12-11T23:16:58;100161.56;;;0.40;89.54
65716;BME280;63484;52.054;8.518;2022-12-11T23:21:59;100165.97;;;0.36;89.80
65716;BME280;63484;52.054;8.518;2022-12-11T23:26:59;100161.72;;;0.35;89.84
65716;BME280;63484;52.054;8.518;2022-12-11T23:32:00;100170.13;;;0.42;89.68
65716;BME280;63484;52.054;8.518;2022-12-11T23:37:01;100175.34;;;0.40;89.65
65716;BME280;63484;52.054;8.518;2022-12-11T23:42:01;100169.34;;;0.40;89.48
65716;BME280;63484;52.054;8.518;2022-12-11T23:47:02;100171.09;;;0.38;89.46
65716;BME280;63484;52.054;8.518;2022-12-11T23:52:03;100176.41;;;0.33;89.94
65716;BME280;63484;52.054;8.518;2022-12-11T23:57:04;100182.38;;;0.35;89.94
